sensor_id;sensor_type;location;lat;lon;timestamp;P1;durP1;ratioP1;P2;durP2;ratioP2
6292;SDS011;3179;54.350;10.102;2023-07-13T00:01:46;1.80;;;1.00;;
6292;SDS011;3179;54.350;10.102;2023-07-13T00:04:15;4.13;;;1.40;;
6292;SDS011;3179;54.350;10.102;2023-07-13T00:06:42;3.03;;;1.97;;
6292;SDS011;3179;54.350;10.102;2023-07-13T00:09:10;4.27;;;1.83;;
6292;SDS011;3179;54.350;10.102;2023-07-13T00:11:38;2.70;;;1.30;;
6292;SDS011;3179;54.350;10.102;2023-07-13T00:14:06;2.13;;;1.20;;
6292;SDS011;3179;54.350;10.102;2023-07-13T00:16:34;5.67;;;1.97;;
6292;SDS011;3179;54.350;10.102;2023-07-13T00:19:02;4.30;;;1.27;;
6292;SDS011;3179;54.350;10.102;2023-07-13T00:21:29;2.70;;;1.60;;
6292;SDS011;3179;54.350;10.102;2023-07-13T00:23:56;4.27;;;1.90;;
6292;SDS011;3179;54.350;10.102;2023-07-13T00:26:22;2.00;;;1.20;;
6292;SDS011;3179;54.350;10.102;2023-07-13T00:28:49;2.87;;;1.20;;
6292;SDS011;3179;54.350;10.102;2023-07-13T00:31:18;3.03;;;1.27;;
6292;SDS011;3179;54.350;10.102;2023-07-13T00:33:44;2.30;;;1.37;;
6292;SDS011;3179;54.350;10.102;2023-07-13T00:36:11;2.63;;;1.40;;
6292;SDS011;3179;54.350;10.102;2023-07-13T00:38:39;2.63;;;1.63;;
6292;SDS011;3179;54.350;10.102;2023-07-13T00:41:06;1.20;;;1.10;;
6292;SDS011;3179;54.350;10.102;2023-07-13T00:43:33;3.70;;;1.13;;
6292;SDS011;3179;54.350;10.102;2023-07-13T00:46:14;6.63;;;1.33;;
6292;SDS011;3179;54.350;10.102;2023-07-13T00:48:46;3.40;;;1.20;;
6292;SDS011;3179;54.350;10.102;2023-07-13T00:51:15;4.80;;;1.40;;
6292;SDS011;3179;54.350;10.102;2023-07-13T00:53:45;2.13;;;1.50;;
6292;SDS011;3179;54.350;10.102;2023-07-13T00:56:11;3.23;;;1.57;;
6292;SDS011;3179;54.350;10.102;2023-07-13T00:58:39;3.70;;;1.10;;
6292;SDS011;3179;54.350;10.102;2023-07-13T01:01:06;3.53;;;1.20;;
6292;SDS011;3179;54.350;10.102;2023-07-13T01:03:35;2.23;;;1.50;;
6292;SDS011;3179;54.350;10.102;2023-07-13T01:06:03;3.63;;;1.37;;
6292;SDS011;3179;54.350;10.102;2023-07-13T01:08:30;3.90;;;1.53;;
6292;SDS011;3179;54.350;10.102;2023-07-13T01:10:59;2.47;;;1.60;;
6292;SDS011;3179;54.350;10.102;2023-07-13T01:13:26;1.30;;;1.00;;
6292;SDS011;3179;54.350;10.102;2023-07-13T01:15:55;1.67;;;1.47;;
6292;SDS011;3179;54.350;10.102;2023-07-13T01:18:27;3.70;;;1.77;;
6292;SDS011;3179;54.350;10.102;2023-07-13T01:20:57;3.57;;;1.57;;
6292;SDS011;3179;54.350;10.102;2023-07-13T01:23:26;6.93;;;1.63;;
6292;SDS011;3179;54.350;10.102;2023-07-13T01:25:54;3.50;;;1.70;;
6292;SDS011;3179;54.350;10.102;2023-07-13T01:28:22;2.10;;;1.50;;
6292;SDS011;3179;54.350;10.102;2023-07-13T01:30:52;1.70;;;1.50;;
6292;SDS011;3179;54.350;10.102;2023-07-13T01:33:20;3.87;;;1.43;;
6292;SDS011;3179;54.350;10.102;2023-07-13T01:35:46;1.47;;;1.37;;
6292;SDS011;3179;54.350;10.102;2023-07-13T01:38:15;3.23;;;1.50;;
6292;SDS011;3179;54.350;10.102;2023-07-13T01:40:44;2.10;;;1.40;;
6292;SDS011;3179;54.350;10.102;2023-07-13T01:43:12;2.70;;;1.13;;
6292;SDS011;3179;54.350;10.102;2023-07-13T01:45:39;4.40;;;1.90;;
6292;SDS011;3179;54.350;10.102;2023-07-13T01:48:05;3.33;;;1.77;;
6292;SDS011;3179;54.350;10.102;2023-07-13T01:50:32;2.20;;;1.63;;
6292;SDS011;3179;54.350;10.102;2023-07-13T01:52:59;2.43;;;1.33;;
6292;SDS011;3179;54.350;10.102;2023-07-13T01:55:28;3.13;;;1.53;;
6292;SDS011;3179;54.350;10.102;2023-07-13T01:57:55;2.10;;;1.30;;
6292;SDS011;3179;54.350;10.102;2023-07-13T02:00:22;4.03;;;1.67;;
6292;SDS011;3179;54.350;10.102;2023-07-13T02:02:49;2.97;;;1.53;;
6292;SDS011;3179;54.350;10.102;2023-07-13T02:05:16;2.80;;;1.60;;
6292;SDS011;3179;54.350;10.102;2023-07-13T02:07:43;2.30;;;1.60;;
6292;SDS011;3179;54.350;10.102;2023-07-13T02:10:11;3.70;;;1.53;;
6292;SDS011;3179;54.350;10.102;2023-07-13T02:12:40;2.80;;;1.83;;
6292;SDS011;3179;54.350;10.102;2023-07-13T02:15:07;2.53;;;1.50;;
6292;SDS011;3179;54.350;10.102;2023-07-13T02:17:35;3.60;;;1.80;;
6292;SDS011;3179;54.350;10.102;2023-07-13T02:20:02;1.90;;;1.70;;
6292;SDS011;3179;54.350;10.102;2023-07-13T02:22:30;3.93;;;1.60;;
6292;SDS011;3179;54.350;10.102;2023-07-13T02:24:56;5.20;;;1.90;;
6292;SDS011;3179;54.350;10.102;2023-07-13T02:27:23;2.60;;;1.63;;
6292;SDS011;3179;54.350;10.102;2023-07-13T02:29:51;4.13;;;2.00;;
6292;SDS011;3179;54.350;10.102;2023-07-13T02:32:18;6.77;;;1.30;;
6292;SDS011;3179;54.350;10.102;2023-07-13T02:34:45;2.83;;;1.60;;
6292;SDS011;3179;54.350;10.102;2023-07-13T02:37:12;2.40;;;1.40;;
6292;SDS011;3179;54.350;10.102;2023-07-13T02:39:39;2.40;;;1.10;;
6292;SDS011;3179;54.350;10.102;2023-07-13T02:42:06;3.83;;;1.40;;
6292;SDS011;3179;54.350;10.102;2023-07-13T02:44:33;1.90;;;1.33;;
6292;SDS011;3179;54.350;10.102;2023-07-13T02:47:01;1.90;;;1.33;;
6292;SDS011;3179;54.350;10.102;2023-07-13T02:49:28;3.30;;;1.50;;
6292;SDS011;3179;54.350;10.102;2023-07-13T02:51:54;3.10;;;1.60;;
6292;SDS011;3179;54.350;10.102;2023-07-13T02:54:21;1.60;;;1.30;;
6292;SDS011;3179;54.350;10.102;2023-07-13T02:56:48;4.17;;;1.37;;
6292;SDS011;3179;54.350;10.102;2023-07-13T02:59:15;3.57;;;1.30;;
6292;SDS011;3179;54.350;10.102;2023-07-13T03:01:42;1.27;;;1.07;;
6292;SDS011;3179;54.350;10.102;2023-07-13T03:04:11;3.50;;;1.30;;
6292;SDS011;3179;54.350;10.102;2023-07-13T03:06:38;2.43;;;1.33;;
6292;SDS011;3179;54.350;10.102;2023-07-13T03:09:05;2.53;;;1.43;;
6292;SDS011;3179;54.350;10.102;2023-07-13T03:11:32;1.57;;;1.20;;
6292;SDS011;3179;54.350;10.102;2023-07-13T03:13:58;2.57;;;1.47;;
6292;SDS011;3179;54.350;10.102;2023-07-13T03:16:25;2.80;;;1.33;;
6292;SDS011;3179;54.350;10.102;2023-07-13T03:18:52;1.60;;;1.40;;
6292;SDS011;3179;54.350;10.102;2023-07-13T03:21:20;2.60;;;1.83;;
6292;SDS011;3179;54.350;10.102;2023-07-13T03:23:47;2.60;;;1.60;;
6292;SDS011;3179;54.350;10.102;2023-07-13T03:26:15;2.83;;;1.37;;
6292;SDS011;3179;54.350;10.102;2023-07-13T03:28:44;2.23;;;1.27;;
6292;SDS011;3179;54.350;10.102;2023-07-13T03:31:12;2.10;;;1.83;;
6292;SDS011;3179;54.350;10.102;2023-07-13T03:33:42;2.03;;;1.30;;
6292;SDS011;3179;54.350;10.102;2023-07-13T03:36:12;2.23;;;1.70;;
6292;SDS011;3179;54.350;10.102;2023-07-13T03:38:42;1.73;;;1.37;;
6292;SDS011;3179;54.350;10.102;2023-07-13T03:41:09;7.30;;;1.70;;
6292;SDS011;3179;54.350;10.102;2023-07-13T03:43:36;2.60;;;1.87;;
6292;SDS011;3179;54.350;10.102;2023-07-13T03:46:03;3.20;;;2.03;;
6292;SDS011;3179;54.350;10.102;2023-07-13T03:48:30;1.50;;;1.40;;
6292;SDS011;3179;54.350;10.102;2023-07-13T03:50:57;2.20;;;1.40;;
6292;SDS011;3179;54.350;10.102;2023-07-13T03:53:23;3.63;;;2.13;;
6292;SDS011;3179;54.350;10.102;2023-07-13T03:55:52;2.83;;;2.20;;
6292;SDS011;3179;54.350;10.102;2023-07-13T03:58:26;4.13;;;1.70;;
6292;SDS011;3179;54.350;10.102;2023-07-13T04:00:54;3.37;;;1.80;;
6292;SDS011;3179;54.350;10.102;2023-07-13T04:03:22;2.30;;;1.63;;
6292;SDS011;3179;54.350;10.102;2023-07-13T04:05:49;3.13;;;1.97;;
6292;SDS011;3179;54.350;10.102;2023-07-13T04:08:16;2.60;;;1.70;;
6292;SDS011;3179;54.350;10.102;2023-07-13T04:10:43;4.00;;;1.97;;
6292;SDS011;3179;54.350;10.102;2023-07-13T04:13:12;1.93;;;1.53;;
6292;SDS011;3179;54.350;10.102;2023-07-13T04:15:40;2.77;;;1.77;;
6292;SDS011;3179;54.350;10.102;2023-07-13T04:18:06;2.47;;;1.90;;
6292;SDS011;3179;54.350;10.102;2023-07-13T04:20:34;5.23;;;2.33;;
6292;SDS011;3179;54.350;10.102;2023-07-13T04:23:01;3.03;;;2.10;;
6292;SDS011;3179;54.350;10.102;2023-07-13T04:25:28;1.70;;;1.47;;
6292;SDS011;3179;54.350;10.102;2023-07-13T04:27:55;4.67;;;1.70;;
6292;SDS011;3179;54.350;10.102;2023-07-13T04:30:24;2.27;;;2.07;;
6292;SDS011;3179;54.350;10.102;2023-07-13T04:32:51;1.90;;;1.80;;
6292;SDS011;3179;54.350;10.102;2023-07-13T04:35:18;5.40;;;2.03;;
6292;SDS011;3179;54.350;10.102;2023-07-13T04:37:47;3.33;;;1.87;;
6292;SDS011;3179;54.350;10.102;2023-07-13T04:40:15;1.73;;;1.47;;
6292;SDS011;3179;54.350;10.102;2023-07-13T04:42:43;1.97;;;1.70;;
6292;SDS011;3179;54.350;10.102;2023-07-13T04:45:10;4.47;;;1.67;;
6292;SDS011;3179;54.350;10.102;2023-07-13T04:47:39;3.13;;;2.20;;
6292;SDS011;3179;54.350;10.102;2023-07-13T04:50:07;5.07;;;2.10;;
6292;SDS011;3179;54.350;10.102;2023-07-13T04:52:35;3.03;;;1.80;;
6292;SDS011;3179;54.350;10.102;2023-07-13T04:55:02;2.60;;;1.93;;
6292;SDS011;3179;54.350;10.102;2023-07-13T04:57:30;3.47;;;2.00;;
6292;SDS011;3179;54.350;10.102;2023-07-13T04:59:57;3.00;;;1.97;;
6292;SDS011;3179;54.350;10.102;2023-07-13T05:02:26;3.50;;;1.53;;
6292;SDS011;3179;54.350;10.102;2023-07-13T05:04:54;2.53;;;1.70;;
6292;SDS011;3179;54.350;10.102;2023-07-13T05:07:21;4.27;;;1.60;;
6292;SDS011;3179;54.350;10.102;2023-07-13T05:09:48;3.83;;;1.97;;
6292;SDS011;3179;54.350;10.102;2023-07-13T05:12:15;2.30;;;1.57;;
6292;SDS011;3179;54.350;10.102;2023-07-13T05:14:42;2.40;;;1.97;;
6292;SDS011;3179;54.350;10.102;2023-07-13T05:17:09;3.20;;;2.13;;
6292;SDS011;3179;54.350;10.102;2023-07-13T05:19:36;4.80;;;2.10;;
6292;SDS011;3179;54.350;10.102;2023-07-13T05:22:04;4.33;;;2.00;;
6292;SDS011;3179;54.350;10.102;2023-07-13T05:24:31;2.30;;;1.60;;
6292;SDS011;3179;54.350;10.102;2023-07-13T05:26:58;3.10;;;2.07;;
6292;SDS011;3179;54.350;10.102;2023-07-13T05:29:25;5.60;;;1.70;;
6292;SDS011;3179;54.350;10.102;2023-07-13T05:31:52;2.83;;;1.27;;
6292;SDS011;3179;54.350;10.102;2023-07-13T05:34:19;3.50;;;1.67;;
6292;SDS011;3179;54.350;10.102;2023-07-13T05:36:46;3.63;;;2.00;;
6292;SDS011;3179;54.350;10.102;2023-07-13T05:39:15;4.93;;;2.00;;
6292;SDS011;3179;54.350;10.102;2023-07-13T05:41:42;4.00;;;1.80;;
6292;SDS011;3179;54.350;10.102;2023-07-13T05:44:09;6.63;;;2.40;;
6292;SDS011;3179;54.350;10.102;2023-07-13T05:46:36;4.37;;;2.07;;
6292;SDS011;3179;54.350;10.102;2023-07-13T05:49:03;7.90;;;2.70;;
6292;SDS011;3179;54.350;10.102;2023-07-13T05:51:30;4.80;;;1.87;;
6292;SDS011;3179;54.350;10.102;2023-07-13T05:53:56;8.07;;;1.90;;
6292;SDS011;3179;54.350;10.102;2023-07-13T05:56:25;6.00;;;2.17;;
6292;SDS011;3179;54.350;10.102;2023-07-13T05:58:52;4.30;;;1.67;;
6292;SDS011;3179;54.350;10.102;2023-07-13T06:01:19;2.53;;;1.43;;
6292;SDS011;3179;54.350;10.102;2023-07-13T06:03:47;4.60;;;2.13;;
6292;SDS011;3179;54.350;10.102;2023-07-13T06:06:14;2.83;;;1.90;;
6292;SDS011;3179;54.350;10.102;2023-07-13T06:08:41;3.23;;;1.90;;
6292;SDS011;3179;54.350;10.102;2023-07-13T06:11:11;4.20;;;2.17;;
6292;SDS011;3179;54.350;10.102;2023-07-13T06:13:42;3.90;;;2.00;;
6292;SDS011;3179;54.350;10.102;2023-07-13T06:16:09;2.23;;;1.50;;
6292;SDS011;3179;54.350;10.102;2023-07-13T06:18:37;3.20;;;1.93;;
6292;SDS011;3179;54.350;10.102;2023-07-13T06:21:07;2.70;;;1.70;;
6292;SDS011;3179;54.350;10.102;2023-07-13T06:23:35;2.90;;;1.60;;
6292;SDS011;3179;54.350;10.102;2023-07-13T06:26:03;4.00;;;2.13;;
6292;SDS011;3179;54.350;10.102;2023-07-13T06:28:30;3.10;;;1.90;;
6292;SDS011;3179;54.350;10.102;2023-07-13T06:30:59;8.67;;;2.00;;
6292;SDS011;3179;54.350;10.102;2023-07-13T06:33:26;7.87;;;2.00;;
6292;SDS011;3179;54.350;10.102;2023-07-13T06:35:53;4.37;;;1.90;;
6292;SDS011;3179;54.350;10.102;2023-07-13T06:38:20;3.80;;;1.60;;
6292;SDS011;3179;54.350;10.102;2023-07-13T06:40:48;7.40;;;2.07;;
6292;SDS011;3179;54.350;10.102;2023-07-13T06:43:14;4.87;;;1.80;;
6292;SDS011;3179;54.350;10.102;2023-07-13T06:45:43;7.20;;;2.30;;
6292;SDS011;3179;54.350;10.102;2023-07-13T06:48:13;3.30;;;1.97;;
6292;SDS011;3179;54.350;10.102;2023-07-13T06:50:41;4.20;;;1.73;;
6292;SDS011;3179;54.350;10.102;2023-07-13T06:53:07;5.40;;;1.87;;
6292;SDS011;3179;54.350;10.102;2023-07-13T06:55:34;5.40;;;2.40;;
6292;SDS011;3179;54.350;10.102;2023-07-13T06:58:01;5.40;;;1.73;;
6292;SDS011;3179;54.350;10.102;2023-07-13T07:00:28;5.97;;;2.50;;
6292;SDS011;3179;54.350;10.102;2023-07-13T07:02:55;3.07;;;1.57;;
6292;SDS011;3179;54.350;10.102;2023-07-13T07:05:23;6.87;;;1.80;;
6292;SDS011;3179;54.350;10.102;2023-07-13T07:07:51;5.00;;;1.57;;
6292;SDS011;3179;54.350;10.102;2023-07-13T07:10:20;1.77;;;1.40;;
6292;SDS011;3179;54.350;10.102;2023-07-13T07:12:47;6.80;;;2.20;;
6292;SDS011;3179;54.350;10.102;2023-07-13T07:15:14;7.60;;;1.90;;
6292;SDS011;3179;54.350;10.102;2023-07-13T07:17:42;3.13;;;1.50;;
6292;SDS011;3179;54.350;10.102;2023-07-13T07:20:09;4.30;;;1.90;;
6292;SDS011;3179;54.350;10.102;2023-07-13T07:22:38;4.43;;;1.70;;
6292;SDS011;3179;54.350;10.102;2023-07-13T07:25:05;3.73;;;1.63;;
6292;SDS011;3179;54.350;10.102;2023-07-13T07:27:32;3.20;;;1.50;;
6292;SDS011;3179;54.350;10.102;2023-07-13T07:29:59;2.97;;;1.63;;
6292;SDS011;3179;54.350;10.102;2023-07-13T07:32:28;5.27;;;1.87;;
6292;SDS011;3179;54.350;10.102;2023-07-13T07:34:56;7.47;;;1.97;;
6292;SDS011;3179;54.350;10.102;2023-07-13T07:37:23;5.47;;;1.90;;
6292;SDS011;3179;54.350;10.102;2023-07-13T07:39:52;2.70;;;1.70;;
6292;SDS011;3179;54.350;10.102;2023-07-13T07:42:19;4.77;;;1.60;;
6292;SDS011;3179;54.350;10.102;2023-07-13T07:44:46;4.70;;;1.77;;
6292;SDS011;3179;54.350;10.102;2023-07-13T07:47:13;1.90;;;1.37;;
6292;SDS011;3179;54.350;10.102;2023-07-13T07:49:40;3.67;;;1.50;;
6292;SDS011;3179;54.350;10.102;2023-07-13T07:52:07;6.30;;;1.70;;
6292;SDS011;3179;54.350;10.102;2023-07-13T07:54:34;4.83;;;1.80;;
6292;SDS011;3179;54.350;10.102;2023-07-13T07:57:03;2.80;;;1.63;;
6292;SDS011;3179;54.350;10.102;2023-07-13T07:59:30;4.43;;;1.60;;
6292;SDS011;3179;54.350;10.102;2023-07-13T08:01:56;3.33;;;1.60;;
6292;SDS011;3179;54.350;10.102;2023-07-13T08:04:23;7.10;;;1.63;;
6292;SDS011;3179;54.350;10.102;2023-07-13T08:06:50;4.37;;;1.57;;
6292;SDS011;3179;54.350;10.102;2023-07-13T08:09:17;4.77;;;1.90;;
6292;SDS011;3179;54.350;10.102;2023-07-13T08:11:44;2.23;;;1.43;;
6292;SDS011;3179;54.350;10.102;2023-07-13T08:14:12;7.57;;;1.87;;
6292;SDS011;3179;54.350;10.102;2023-07-13T08:16:39;3.13;;;1.50;;
6292;SDS011;3179;54.350;10.102;2023-07-13T08:19:06;6.27;;;1.70;;
6292;SDS011;3179;54.350;10.102;2023-07-13T08:21:33;1.50;;;1.10;;
6292;SDS011;3179;54.350;10.102;2023-07-13T08:24:00;2.30;;;1.27;;
6292;SDS011;3179;54.350;10.102;2023-07-13T08:26:27;2.50;;;1.20;;
6292;SDS011;3179;54.350;10.102;2023-07-13T08:28:54;2.20;;;1.47;;
6292;SDS011;3179;54.350;10.102;2023-07-13T08:31:22;1.23;;;1.13;;
6292;SDS011;3179;54.350;10.102;2023-07-13T08:33:49;1.73;;;1.57;;
6292;SDS011;3179;54.350;10.102;2023-07-13T08:36:16;1.90;;;0.97;;
6292;SDS011;3179;54.350;10.102;2023-07-13T08:38:43;3.63;;;1.80;;
6292;SDS011;3179;54.350;10.102;2023-07-13T08:41:11;4.03;;;1.83;;
6292;SDS011;3179;54.350;10.102;2023-07-13T08:43:39;1.67;;;1.03;;
6292;SDS011;3179;54.350;10.102;2023-07-13T08:46:09;4.77;;;1.87;;
6292;SDS011;3179;54.350;10.102;2023-07-13T08:48:43;3.53;;;1.73;;
6292;SDS011;3179;54.350;10.102;2023-07-13T08:51:16;2.03;;;1.53;;
6292;SDS011;3179;54.350;10.102;2023-07-13T08:53:55;3.50;;;2.20;;
6292;SDS011;3179;54.350;10.102;2023-07-13T08:56:26;4.33;;;1.70;;
6292;SDS011;3179;54.350;10.102;2023-07-13T08:58:55;4.00;;;1.40;;
6292;SDS011;3179;54.350;10.102;2023-07-13T09:01:24;2.90;;;1.27;;
6292;SDS011;3179;54.350;10.102;2023-07-13T09:03:59;2.23;;;1.00;;
6292;SDS011;3179;54.350;10.102;2023-07-13T09:06:34;1.90;;;0.87;;
6292;SDS011;3179;54.350;10.102;2023-07-13T09:09:10;1.17;;;0.60;;
6292;SDS011;3179;54.350;10.102;2023-07-13T09:11:45;1.10;;;1.00;;
6292;SDS011;3179;54.350;10.102;2023-07-13T09:17:10;1.70;;;1.10;;
6292;SDS011;3179;54.350;10.102;2023-07-13T09:19:42;2.03;;;1.10;;
6292;SDS011;3179;54.350;10.102;2023-07-13T09:22:13;1.53;;;1.00;;
6292;SDS011;3179;54.350;10.102;2023-07-13T09:24:55;3.00;;;1.33;;
6292;SDS011;3179;54.350;10.102;2023-07-13T09:27:30;0.80;;;0.80;;
6292;SDS011;3179;54.350;10.102;2023-07-13T09:30:04;1.10;;;1.00;;
6292;SDS011;3179;54.350;10.102;2023-07-13T09:32:50;1.60;;;1.50;;
6292;SDS011;3179;54.350;10.102;2023-07-13T09:35:20;3.50;;;1.77;;
6292;SDS011;3179;54.350;10.102;2023-07-13T09:37:56;2.20;;;1.47;;
6292;SDS011;3179;54.350;10.102;2023-07-13T09:40:28;2.67;;;1.47;;
6292;SDS011;3179;54.350;10.102;2023-07-13T09:43:02;3.27;;;1.60;;
6292;SDS011;3179;54.350;10.102;2023-07-13T09:45:33;1.90;;;1.10;;
6292;SDS011;3179;54.350;10.102;2023-07-13T09:48:04;3.70;;;1.30;;
6292;SDS011;3179;54.350;10.102;2023-07-13T09:50:35;2.00;;;1.57;;
6292;SDS011;3179;54.350;10.102;2023-07-13T09:53:02;1.47;;;1.20;;
6292;SDS011;3179;54.350;10.102;2023-07-13T09:55:30;3.00;;;1.60;;
6292;SDS011;3179;54.350;10.102;2023-07-13T09:58:02;2.60;;;1.40;;
6292;SDS011;3179;54.350;10.102;2023-07-13T10:00:31;3.20;;;1.50;;
6292;SDS011;3179;54.350;10.102;2023-07-13T10:03:02;4.50;;;1.93;;
6292;SDS011;3179;54.350;10.102;2023-07-13T10:05:38;7.17;;;1.70;;
6292;SDS011;3179;54.350;10.102;2023-07-13T10:08:14;1.40;;;1.20;;
6292;SDS011;3179;54.350;10.102;2023-07-13T10:10:47;3.47;;;1.70;;
6292;SDS011;3179;54.350;10.102;2023-07-13T10:13:24;3.17;;;1.53;;
6292;SDS011;3179;54.350;10.102;2023-07-13T10:16:02;7.93;;;1.50;;
6292;SDS011;3179;54.350;10.102;2023-07-13T10:18:31;1.63;;;1.50;;
6292;SDS011;3179;54.350;10.102;2023-07-13T10:21:13;3.57;;;1.37;;
6292;SDS011;3179;54.350;10.102;2023-07-13T10:23:43;1.63;;;1.30;;
6292;SDS011;3179;54.350;10.102;2023-07-13T10:26:14;4.20;;;1.57;;
6292;SDS011;3179;54.350;10.102;2023-07-13T10:28:46;4.93;;;1.50;;
6292;SDS011;3179;54.350;10.102;2023-07-13T10:31:18;3.70;;;1.40;;
6292;SDS011;3179;54.350;10.102;2023-07-13T10:33:46;1.20;;;1.03;;
6292;SDS011;3179;54.350;10.102;2023-07-13T10:36:16;1.10;;;0.80;;
6292;SDS011;3179;54.350;10.102;2023-07-13T10:38:50;2.50;;;0.87;;
6292;SDS011;3179;54.350;10.102;2023-07-13T10:41:20;1.63;;;1.00;;
6292;SDS011;3179;54.350;10.102;2023-07-13T10:43:49;1.13;;;0.80;;
6292;SDS011;3179;54.350;10.102;2023-07-13T10:46:20;0.80;;;0.77;;
6292;SDS011;3179;54.350;10.102;2023-07-13T10:48:52;3.80;;;1.33;;
6292;SDS011;3179;54.350;10.102;2023-07-13T10:51:24;3.53;;;1.17;;
6292;SDS011;3179;54.350;10.102;2023-07-13T10:54:11;1.73;;;0.90;;
6292;SDS011;3179;54.350;10.102;2023-07-13T10:56:48;1.53;;;0.70;;
6292;SDS011;3179;54.350;10.102;2023-07-13T10:59:16;2.53;;;1.50;;
6292;SDS011;3179;54.350;10.102;2023-07-13T11:01:52;1.97;;;0.90;;
6292;SDS011;3179;54.350;10.102;2023-07-13T11:04:22;1.40;;;1.03;;
6292;SDS011;3179;54.350;10.102;2023-07-13T11:06:52;1.93;;;0.80;;
6292;SDS011;3179;54.350;10.102;2023-07-13T11:09:36;1.90;;;1.00;;
6292;SDS011;3179;54.350;10.102;2023-07-13T11:12:09;3.03;;;0.97;;
6292;SDS011;3179;54.350;10.102;2023-07-13T11:15:06;2.17;;;0.90;;
6292;SDS011;3179;54.350;10.102;2023-07-13T11:17:38;1.60;;;1.13;;
6292;SDS011;3179;54.350;10.102;2023-07-13T11:23:09;3.37;;;1.20;;
6292;SDS011;3179;54.350;10.102;2023-07-13T11:25:54;2.87;;;1.00;;
6292;SDS011;3179;54.350;10.102;2023-07-13T11:28:22;2.50;;;1.37;;
6292;SDS011;3179;54.350;10.102;2023-07-13T11:31:01;2.40;;;1.10;;
6292;SDS011;3179;54.350;10.102;2023-07-13T11:33:45;2.57;;;1.13;;
6292;SDS011;3179;54.350;10.102;2023-07-13T11:36:19;2.20;;;1.07;;
6292;SDS011;3179;54.350;10.102;2023-07-13T11:38:55;4.30;;;1.20;;
6292;SDS011;3179;54.350;10.102;2023-07-13T11:41:29;3.67;;;1.10;;
6292;SDS011;3179;54.350;10.102;2023-07-13T11:44:01;1.73;;;0.90;;
6292;SDS011;3179;54.350;10.102;2023-07-13T11:46:32;2.60;;;0.90;;
6292;SDS011;3179;54.350;10.102;2023-07-13T11:48:59;5.53;;;1.10;;
6292;SDS011;3179;54.350;10.102;2023-07-13T11:51:27;1.13;;;0.87;;
6292;SDS011;3179;54.350;10.102;2023-07-13T11:53:59;1.67;;;0.87;;
6292;SDS011;3179;54.350;10.102;2023-07-13T11:56:29;1.37;;;0.70;;
6292;SDS011;3179;54.350;10.102;2023-07-13T11:58:59;3.67;;;1.07;;
6292;SDS011;3179;54.350;10.102;2023-07-13T12:01:31;4.73;;;0.80;;
6292;SDS011;3179;54.350;10.102;2023-07-13T12:04:00;1.73;;;0.90;;
6292;SDS011;3179;54.350;10.102;2023-07-13T12:06:29;1.67;;;0.70;;
6292;SDS011;3179;54.350;10.102;2023-07-13T12:08:58;1.80;;;0.63;;
6292;SDS011;3179;54.350;10.102;2023-07-13T12:11:28;6.77;;;1.20;;
6292;SDS011;3179;54.350;10.102;2023-07-13T12:13:56;0.80;;;0.70;;
6292;SDS011;3179;54.350;10.102;2023-07-13T12:16:25;2.30;;;0.63;;
6292;SDS011;3179;54.350;10.102;2023-07-13T12:18:54;1.50;;;0.90;;
6292;SDS011;3179;54.350;10.102;2023-07-13T12:21:23;0.77;;;0.70;;
6292;SDS011;3179;54.350;10.102;2023-07-13T12:23:54;1.93;;;0.87;;
6292;SDS011;3179;54.350;10.102;2023-07-13T12:26:23;0.90;;;0.70;;
6292;SDS011;3179;54.350;10.102;2023-07-13T12:28:51;0.87;;;0.70;;
6292;SDS011;3179;54.350;10.102;2023-07-13T12:31:25;1.37;;;0.77;;
6292;SDS011;3179;54.350;10.102;2023-07-13T12:33:58;1.37;;;0.80;;
6292;SDS011;3179;54.350;10.102;2023-07-13T12:36:26;1.57;;;0.70;;
6292;SDS011;3179;54.350;10.102;2023-07-13T12:38:56;1.90;;;0.70;;
6292;SDS011;3179;54.350;10.102;2023-07-13T12:41:30;2.50;;;0.90;;
6292;SDS011;3179;54.350;10.102;2023-07-13T12:43:58;1.43;;;0.87;;
6292;SDS011;3179;54.350;10.102;2023-07-13T12:46:26;1.53;;;0.80;;
6292;SDS011;3179;54.350;10.102;2023-07-13T12:48:54;4.40;;;0.97;;
6292;SDS011;3179;54.350;10.102;2023-07-13T12:51:24;2.63;;;1.03;;
6292;SDS011;3179;54.350;10.102;2023-07-13T12:53:55;4.77;;;1.10;;
6292;SDS011;3179;54.350;10.102;2023-07-13T12:56:25;2.07;;;1.20;;
6292;SDS011;3179;54.350;10.102;2023-07-13T12:58:56;1.90;;;0.93;;
6292;SDS011;3179;54.350;10.102;2023-07-13T13:01:25;2.40;;;0.70;;
6292;SDS011;3179;54.350;10.102;2023-07-13T13:03:55;0.70;;;0.70;;
6292;SDS011;3179;54.350;10.102;2023-07-13T13:06:23;1.80;;;0.70;;
6292;SDS011;3179;54.350;10.102;2023-07-13T13:08:52;2.57;;;1.23;;
6292;SDS011;3179;54.350;10.102;2023-07-13T13:11:21;1.13;;;0.77;;
6292;SDS011;3179;54.350;10.102;2023-07-13T13:13:49;2.03;;;0.70;;
6292;SDS011;3179;54.350;10.102;2023-07-13T13:16:19;2.20;;;1.20;;
6292;SDS011;3179;54.350;10.102;2023-07-13T13:18:49;0.87;;;0.80;;
6292;SDS011;3179;54.350;10.102;2023-07-13T13:21:18;1.90;;;1.03;;
6292;SDS011;3179;54.350;10.102;2023-07-13T13:23:45;1.60;;;0.77;;
6292;SDS011;3179;54.350;10.102;2023-07-13T13:26:13;1.73;;;0.80;;
6292;SDS011;3179;54.350;10.102;2023-07-13T13:28:40;6.33;;;0.90;;
6292;SDS011;3179;54.350;10.102;2023-07-13T13:31:09;3.23;;;1.10;;
6292;SDS011;3179;54.350;10.102;2023-07-13T13:33:39;1.97;;;0.70;;
6292;SDS011;3179;54.350;10.102;2023-07-13T13:36:12;2.33;;;0.90;;
6292;SDS011;3179;54.350;10.102;2023-07-13T13:38:42;1.70;;;0.80;;
6292;SDS011;3179;54.350;10.102;2023-07-13T13:41:09;2.03;;;0.80;;
6292;SDS011;3179;54.350;10.102;2023-07-13T13:43:38;4.20;;;1.07;;
6292;SDS011;3179;54.350;10.102;2023-07-13T13:46:09;2.50;;;0.97;;
6292;SDS011;3179;54.350;10.102;2023-07-13T13:48:42;1.80;;;0.90;;
6292;SDS011;3179;54.350;10.102;2023-07-13T13:51:13;3.27;;;1.20;;
6292;SDS011;3179;54.350;10.102;2023-07-13T13:53:43;1.00;;;0.70;;
6292;SDS011;3179;54.350;10.102;2023-07-13T13:56:10;3.83;;;1.20;;
6292;SDS011;3179;54.350;10.102;2023-07-13T13:58:38;1.73;;;0.90;;
6292;SDS011;3179;54.350;10.102;2023-07-13T14:01:08;2.47;;;0.77;;
6292;SDS011;3179;54.350;10.102;2023-07-13T14:03:39;1.03;;;0.60;;
6292;SDS011;3179;54.350;10.102;2023-07-13T14:06:08;1.00;;;0.87;;
6292;SDS011;3179;54.350;10.102;2023-07-13T14:08:37;1.37;;;0.70;;
6292;SDS011;3179;54.350;10.102;2023-07-13T14:11:05;2.97;;;0.70;;
6292;SDS011;3179;54.350;10.102;2023-07-13T14:13:36;1.87;;;0.90;;
6292;SDS011;3179;54.350;10.102;2023-07-13T14:16:09;2.30;;;0.90;;
6292;SDS011;3179;54.350;10.102;2023-07-13T14:18:38;3.83;;;1.20;;
6292;SDS011;3179;54.350;10.102;2023-07-13T14:21:09;3.00;;;0.80;;
6292;SDS011;3179;54.350;10.102;2023-07-13T14:23:38;2.50;;;0.83;;
6292;SDS011;3179;54.350;10.102;2023-07-13T14:26:07;3.00;;;0.80;;
6292;SDS011;3179;54.350;10.102;2023-07-13T14:28:37;1.87;;;1.00;;
6292;SDS011;3179;54.350;10.102;2023-07-13T14:31:07;3.37;;;1.00;;
6292;SDS011;3179;54.350;10.102;2023-07-13T14:33:34;5.00;;;1.27;;
6292;SDS011;3179;54.350;10.102;2023-07-13T14:36:01;2.00;;;1.10;;
6292;SDS011;3179;54.350;10.102;2023-07-13T14:38:30;1.53;;;1.10;;
6292;SDS011;3179;54.350;10.102;2023-07-13T14:40:57;1.90;;;1.00;;
6292;SDS011;3179;54.350;10.102;2023-07-13T14:43:23;4.53;;;1.03;;
6292;SDS011;3179;54.350;10.102;2023-07-13T14:45:53;1.07;;;0.80;;
6292;SDS011;3179;54.350;10.102;2023-07-13T14:48:22;2.37;;;0.83;;
6292;SDS011;3179;54.350;10.102;2023-07-13T14:50:51;2.23;;;1.00;;
6292;SDS011;3179;54.350;10.102;2023-07-13T14:53:20;4.27;;;1.10;;
6292;SDS011;3179;54.350;10.102;2023-07-13T14:55:49;1.90;;;1.07;;
6292;SDS011;3179;54.350;10.102;2023-07-13T14:58:16;2.37;;;1.00;;
6292;SDS011;3179;54.350;10.102;2023-07-13T15:00:43;2.37;;;1.00;;
6292;SDS011;3179;54.350;10.102;2023-07-13T15:03:15;2.47;;;1.30;;
6292;SDS011;3179;54.350;10.102;2023-07-13T15:05:46;2.93;;;1.10;;
6292;SDS011;3179;54.350;10.102;2023-07-13T15:08:14;1.47;;;1.07;;
6292;SDS011;3179;54.350;10.102;2023-07-13T15:10:42;2.23;;;0.90;;
6292;SDS011;3179;54.350;10.102;2023-07-13T15:13:14;3.13;;;0.80;;
6292;SDS011;3179;54.350;10.102;2023-07-13T15:15:44;2.00;;;0.93;;
6292;SDS011;3179;54.350;10.102;2023-07-13T15:18:13;1.20;;;1.03;;